EZY63DK EGKK-EDDH
Flight info
| Callsign | EZY63DK |
|---|---|
| Flight time | 1h 13m |
| Altitude | 37000 |
| Route | FRANE M604 PAAVO Q295 SOMVA DCT MAVAS DCT PARYD DCT GASTU DCT OSTOR T904 RIBSO RIBSO3P |
| Aircraft | A320/M-SDE2E3FGHIJ1RWXYZ/LB1 |
Departure
| Time | 2026-05-04 10:39 |
|---|---|
| Airport | London Gatwick Airport (EGKK) |
Arrival
| Time | 2026-05-04 11:53 |
|---|---|
| Airport | Hamburg Helmut Schmidt Airport (EDDH) |
| Time | Latitude | Longitude | Altitude | Speed | Heading |
|---|---|---|---|---|---|
| 2026-05-04 10:08 | 51.15861 | -0.17938 | 204 ft | 0 kts | 78° |
| 2026-05-04 10:25 | 51.15858 | -0.17957 | 214 ft | 4 kts | 78° |
| 2026-05-04 10:25 | 51.15853 | -0.17999 | 204 ft | 4 kts | 78° |
| 2026-05-04 10:25 | 51.15848 | -0.18033 | 216 ft | 4 kts | 80° |
| 2026-05-04 10:25 | 51.15848 | -0.18071 | 215 ft | 4 kts | 128° |
| 2026-05-04 10:26 | 51.15867 | -0.18087 | 214 ft | 4 kts | 168° |
| 2026-05-04 10:26 | 51.15876 | -0.18090 | 213 ft | 0 kts | 168° |
| 2026-05-04 10:27 | 51.15873 | -0.18089 | 214 ft | 1 kts | 168° |
| 2026-05-04 10:28 | 51.15849 | -0.18081 | 215 ft | 7 kts | 168° |
| 2026-05-04 10:28 | 51.15778 | -0.18056 | 205 ft | 13 kts | 167° |
| 2026-05-04 10:28 | 51.15688 | -0.18067 | 212 ft | 14 kts | 231° |
| 2026-05-04 10:28 | 51.15666 | -0.18203 | 209 ft | 12 kts | 256° |
| 2026-05-04 10:29 | 51.15647 | -0.18323 | 210 ft | 10 kts | 246° |
| 2026-05-04 10:29 | 51.15590 | -0.18346 | 206 ft | 8 kts | 169° |
| 2026-05-04 10:29 | 51.15526 | -0.18324 | 204 ft | 11 kts | 167° |
| 2026-05-04 10:29 | 51.15461 | -0.18301 | 213 ft | 9 kts | 167° |
| 2026-05-04 10:30 | 51.15405 | -0.18282 | 204 ft | 7 kts | 167° |
| 2026-05-04 10:30 | 51.15359 | -0.18266 | 209 ft | 6 kts | 167° |
| 2026-05-04 10:30 | 51.15319 | -0.18251 | 214 ft | 7 kts | 167° |
| 2026-05-04 10:30 | 51.15257 | -0.18231 | 204 ft | 11 kts | 168° |
| 2026-05-04 10:31 | 51.15188 | -0.18271 | 207 ft | 14 kts | 254° |
| 2026-05-04 10:31 | 51.15175 | -0.18403 | 210 ft | 9 kts | 256° |
| 2026-05-04 10:32 | 51.15111 | -0.18871 | 212 ft | 9 kts | 258° |
| 2026-05-04 10:33 | 51.15098 | -0.18963 | 215 ft | 8 kts | 258° |
| 2026-05-04 10:33 | 51.15088 | -0.19037 | 205 ft | 6 kts | 258° |
| 2026-05-04 10:33 | 51.15080 | -0.19095 | 209 ft | 5 kts | 258° |
| 2026-05-04 10:33 | 51.15067 | -0.19191 | 204 ft | 14 kts | 258° |
| 2026-05-04 10:34 | 51.15048 | -0.19340 | 210 ft | 13 kts | 258° |
| 2026-05-04 10:34 | 51.15029 | -0.19469 | 213 ft | 11 kts | 257° |
| 2026-05-04 10:34 | 51.15013 | -0.19579 | 214 ft | 9 kts | 258° |
| 2026-05-04 10:34 | 51.15001 | -0.19673 | 204 ft | 8 kts | 258° |
| 2026-05-04 10:35 | 51.14990 | -0.19751 | 211 ft | 6 kts | 258° |
| 2026-05-04 10:35 | 51.14978 | -0.19837 | 214 ft | 10 kts | 258° |
| 2026-05-04 10:35 | 51.14959 | -0.19969 | 204 ft | 13 kts | 257° |
| 2026-05-04 10:35 | 51.14942 | -0.20099 | 209 ft | 11 kts | 258° |
| 2026-05-04 10:36 | 51.14926 | -0.20210 | 208 ft | 10 kts | 257° |
| 2026-05-04 10:36 | 51.14911 | -0.20319 | 211 ft | 9 kts | 257° |
| 2026-05-04 10:36 | 51.14898 | -0.20419 | 213 ft | 11 kts | 258° |
| 2026-05-04 10:36 | 51.14878 | -0.20568 | 210 ft | 17 kts | 258° |
| 2026-05-04 10:37 | 51.14849 | -0.20774 | 203 ft | 21 kts | 258° |
| 2026-05-04 10:37 | 51.14817 | -0.21013 | 204 ft | 22 kts | 258° |
| 2026-05-04 10:37 | 51.14780 | -0.21222 | 207 ft | 20 kts | 257° |
| 2026-05-04 10:37 | 51.14713 | -0.21391 | 204 ft | 20 kts | 175° |
| 2026-05-04 10:39 | 51.14680 | -0.20003 | 208 ft | 114 kts | 77° |
| 2026-05-04 10:39 | 51.14896 | -0.18498 | 254 ft | 159 kts | 76° |
| 2026-05-04 10:39 | 51.15106 | -0.16776 | 896 ft | 159 kts | 77° |
| 2026-05-04 10:40 | 51.15338 | -0.15048 | 1548 ft | 163 kts | 75° |
| 2026-05-04 10:40 | 51.15602 | -0.13173 | 1896 ft | 184 kts | 78° |
| 2026-05-04 10:40 | 51.15897 | -0.11064 | 2195 ft | 206 kts | 76° |
| 2026-05-04 10:40 | 51.16223 | -0.08735 | 2449 ft | 227 kts | 76° |
| 2026-05-04 10:41 | 51.16583 | -0.06151 | 2908 ft | 250 kts | 76° |
| 2026-05-04 10:41 | 51.16892 | -0.03376 | 3687 ft | 259 kts | 87° |
| 2026-05-04 10:41 | 51.16908 | -0.00495 | 4555 ft | 263 kts | 82° |
| 2026-05-04 10:41 | 51.17244 | 0.02388 | 5420 ft | 267 kts | 77° |
| 2026-05-04 10:42 | 51.17665 | 0.05292 | 6276 ft | 271 kts | 76° |
| 2026-05-04 10:42 | 51.18104 | 0.08241 | 7113 ft | 276 kts | 76° |
| 2026-05-04 10:42 | 51.18552 | 0.11246 | 7942 ft | 281 kts | 76° |
| 2026-05-04 10:42 | 51.19004 | 0.14299 | 8753 ft | 286 kts | 76° |
| 2026-05-04 10:43 | 51.19478 | 0.17401 | 9508 ft | 291 kts | 73° |
| 2026-05-04 10:44 | 51.31164 | 0.34683 | 13746 ft | 355 kts | 39° |
| 2026-05-04 10:45 | 51.33079 | 0.37209 | 14400 ft | 359 kts | 39° |
| 2026-05-04 10:45 | 51.35013 | 0.39769 | 15062 ft | 363 kts | 39° |
| 2026-05-04 10:45 | 51.36962 | 0.42358 | 15694 ft | 366 kts | 39° |
| 2026-05-04 10:45 | 51.38932 | 0.44982 | 16305 ft | 370 kts | 39° |
| 2026-05-04 10:46 | 51.40914 | 0.47634 | 16918 ft | 374 kts | 39° |
| 2026-05-04 10:46 | 51.42919 | 0.50319 | 17510 ft | 377 kts | 39° |
| 2026-05-04 10:46 | 51.44938 | 0.53025 | 18094 ft | 380 kts | 39° |
| 2026-05-04 10:46 | 51.46980 | 0.55759 | 18666 ft | 383 kts | 39° |
| 2026-05-04 10:47 | 51.49038 | 0.58511 | 19210 ft | 387 kts | 39° |
| 2026-05-04 10:47 | 51.51113 | 0.61295 | 19718 ft | 391 kts | 39° |
| 2026-05-04 10:47 | 51.53213 | 0.64119 | 20223 ft | 396 kts | 39° |
| 2026-05-04 10:47 | 51.55346 | 0.66942 | 20700 ft | 400 kts | 36° |
| 2026-05-04 10:49 | 51.74261 | 0.76351 | 23790 ft | 421 kts | 11° |
| 2026-05-04 10:49 | 51.77118 | 0.77448 | 24196 ft | 424 kts | 11° |
| 2026-05-04 10:50 | 51.79954 | 0.78830 | 24576 ft | 430 kts | 19° |
| 2026-05-04 10:51 | 51.89790 | 1.06368 | 26987 ft | 450 kts | 84° |
| 2026-05-04 10:52 | 51.90460 | 1.11340 | 27306 ft | 455 kts | 75° |
| 2026-05-04 10:52 | 51.91550 | 1.16175 | 27628 ft | 460 kts | 69° |
| 2026-05-04 10:52 | 51.92816 | 1.20944 | 27952 ft | 462 kts | 68° |
| 2026-05-04 10:54 | 52.02112 | 1.55025 | 30018 ft | 480 kts | 68° |
| 2026-05-04 10:54 | 52.03443 | 1.60003 | 30286 ft | 482 kts | 68° |
| 2026-05-04 10:56 | 52.12850 | 1.95463 | 32310 ft | 488 kts | 69° |
| 2026-05-04 10:56 | 52.14190 | 2.00541 | 32645 ft | 488 kts | 69° |
| 2026-05-04 10:56 | 52.15524 | 2.05616 | 32989 ft | 487 kts | 69° |
| 2026-05-04 10:57 | 52.16851 | 2.10675 | 33329 ft | 486 kts | 69° |
| 2026-05-04 10:57 | 52.18172 | 2.15732 | 33661 ft | 485 kts | 69° |
| 2026-05-04 10:57 | 52.19483 | 2.20781 | 34000 ft | 483 kts | 70° |
| 2026-05-04 10:57 | 52.20788 | 2.25819 | 34331 ft | 482 kts | 70° |
| 2026-05-04 10:58 | 52.22089 | 2.30847 | 34643 ft | 481 kts | 70° |
| 2026-05-04 10:58 | 52.23387 | 2.35865 | 34950 ft | 480 kts | 70° |
| 2026-05-04 10:58 | 52.24682 | 2.40877 | 35250 ft | 479 kts | 69° |
| 2026-05-04 10:58 | 52.25971 | 2.45877 | 35545 ft | 477 kts | 69° |
| 2026-05-04 10:59 | 52.27256 | 2.50863 | 35821 ft | 476 kts | 69° |
| 2026-05-04 10:59 | 52.28537 | 2.55845 | 36086 ft | 475 kts | 69° |
| 2026-05-04 10:59 | 52.29813 | 2.60820 | 36344 ft | 474 kts | 69° |
| 2026-05-04 10:59 | 52.30989 | 2.65844 | 36574 ft | 472 kts | 76° |
| 2026-05-04 11:00 | 52.31904 | 2.70989 | 36792 ft | 471 kts | 76° |
| 2026-05-04 11:01 | 52.38103 | 3.06443 | 37025 ft | 461 kts | 76° |
| 2026-05-04 11:02 | 52.38961 | 3.11427 | 37025 ft | 461 kts | 76° |
| 2026-05-04 11:05 | 52.51900 | 3.87652 | 37009 ft | 464 kts | 77° |
| 2026-05-04 11:06 | 52.53602 | 3.97891 | 37010 ft | 465 kts | 77° |
| 2026-05-04 11:06 | 52.55290 | 4.08142 | 37010 ft | 465 kts | 77° |
| 2026-05-04 11:10 | 52.66619 | 4.78686 | 37007 ft | 467 kts | 77° |
| 2026-05-04 11:12 | 52.73073 | 5.20190 | 37006 ft | 468 kts | 78° |
| 2026-05-04 11:12 | 52.74660 | 5.30590 | 37007 ft | 468 kts | 78° |
| 2026-05-04 11:13 | 52.76238 | 5.41006 | 37005 ft | 468 kts | 78° |
| 2026-05-04 11:13 | 52.77812 | 5.51435 | 37004 ft | 468 kts | 78° |
| 2026-05-04 11:14 | 52.79385 | 5.61871 | 37004 ft | 468 kts | 78° |
| 2026-05-04 11:16 | 52.85543 | 6.03713 | 37006 ft | 470 kts | 78° |
| 2026-05-04 11:16 | 52.87071 | 6.14223 | 37007 ft | 470 kts | 78° |
| 2026-05-04 11:17 | 52.88591 | 6.24757 | 37009 ft | 471 kts | 78° |
| 2026-05-04 11:19 | 52.94567 | 6.66954 | 37014 ft | 470 kts | 78° |
| 2026-05-04 11:19 | 52.96032 | 6.77528 | 37017 ft | 471 kts | 78° |
| 2026-05-04 11:20 | 52.97497 | 6.88109 | 37014 ft | 471 kts | 78° |
| 2026-05-04 11:20 | 52.98952 | 6.98693 | 37019 ft | 470 kts | 78° |
| 2026-05-04 11:22 | 53.05272 | 7.35055 | 36105 ft | 472 kts | 54° |
| 2026-05-04 11:22 | 53.07323 | 7.39317 | 35846 ft | 473 kts | 44° |
| 2026-05-04 11:23 | 53.09740 | 7.42972 | 35458 ft | 468 kts | 34° |
| 2026-05-04 11:23 | 53.12433 | 7.45982 | 34935 ft | 464 kts | 29° |
| 2026-05-04 11:24 | 53.28575 | 7.63084 | 31868 ft | 452 kts | 28° |
| 2026-05-04 11:25 | 53.31221 | 7.65905 | 31364 ft | 450 kts | 28° |
| 2026-05-04 11:25 | 53.33857 | 7.68721 | 30858 ft | 448 kts | 28° |
| 2026-05-04 11:25 | 53.36477 | 7.71526 | 30393 ft | 446 kts | 27° |
| 2026-05-04 11:26 | 53.41677 | 7.77104 | 29442 ft | 441 kts | 27° |
| 2026-05-04 11:27 | 53.59332 | 7.96186 | 26255 ft | 422 kts | 29° |
| 2026-05-04 11:28 | 53.61621 | 7.99297 | 25779 ft | 425 kts | 43° |
| 2026-05-04 11:28 | 53.63456 | 8.03215 | 25255 ft | 427 kts | 58° |
| 2026-05-04 11:28 | 53.64724 | 8.07718 | 24740 ft | 425 kts | 72° |
| 2026-05-04 11:28 | 53.65629 | 8.12458 | 24200 ft | 424 kts | 74° |
| 2026-05-04 11:29 | 53.66527 | 8.17196 | 23668 ft | 423 kts | 74° |
| 2026-05-04 11:29 | 53.67423 | 8.21915 | 23130 ft | 423 kts | 73° |
| 2026-05-04 11:29 | 53.68323 | 8.26635 | 22601 ft | 422 kts | 73° |
| 2026-05-04 11:29 | 53.69220 | 8.31349 | 22112 ft | 420 kts | 73° |
| 2026-05-04 11:31 | 53.75228 | 8.63306 | 19124 ft | 397 kts | 73° |
| 2026-05-04 11:33 | 53.80819 | 8.93604 | 16268 ft | 377 kts | 73° |
| 2026-05-04 11:33 | 53.81593 | 8.97833 | 15865 ft | 375 kts | 73° |
| 2026-05-04 11:33 | 53.82367 | 9.02093 | 15468 ft | 372 kts | 75° |
| 2026-05-04 11:34 | 53.82788 | 9.06377 | 15083 ft | 367 kts | 90° |
| 2026-05-04 11:34 | 53.82656 | 9.10598 | 14684 ft | 363 kts | 98° |
| 2026-05-04 11:34 | 53.82405 | 9.14844 | 14273 ft | 362 kts | 98° |
| 2026-05-04 11:34 | 53.82155 | 9.19065 | 13886 ft | 360 kts | 98° |
| 2026-05-04 11:35 | 53.81908 | 9.23265 | 13495 ft | 358 kts | 98° |
| 2026-05-04 11:35 | 53.81662 | 9.27437 | 13111 ft | 355 kts | 98° |
| 2026-05-04 11:35 | 53.81421 | 9.31580 | 12721 ft | 353 kts | 97° |
| 2026-05-04 11:35 | 53.81490 | 9.35727 | 12327 ft | 353 kts | 82° |
| 2026-05-04 11:36 | 53.81973 | 9.39796 | 11918 ft | 352 kts | 79° |
| 2026-05-04 11:36 | 53.82474 | 9.43840 | 11539 ft | 350 kts | 79° |
| 2026-05-04 11:36 | 53.82967 | 9.47847 | 11161 ft | 347 kts | 79° |
| 2026-05-04 11:36 | 53.83452 | 9.51828 | 10784 ft | 344 kts | 79° |
| 2026-05-04 11:37 | 53.83928 | 9.55778 | 10405 ft | 342 kts | 78° |
| 2026-05-04 11:37 | 53.84398 | 9.59699 | 10065 ft | 337 kts | 78° |
| 2026-05-04 11:37 | 53.84860 | 9.63557 | 9839 ft | 329 kts | 78° |
| 2026-05-04 11:37 | 53.85306 | 9.67293 | 9689 ft | 319 kts | 78° |
| 2026-05-04 11:38 | 53.85739 | 9.70950 | 9434 ft | 313 kts | 78° |
| 2026-05-04 11:38 | 53.86159 | 9.74498 | 9308 ft | 302 kts | 78° |
| 2026-05-04 11:38 | 53.86560 | 9.77931 | 9180 ft | 292 kts | 80° |
| 2026-05-04 11:38 | 53.86657 | 9.81227 | 9057 ft | 281 kts | 95° |
| 2026-05-04 11:39 | 53.86615 | 9.84534 | 8924 ft | 272 kts | 77° |
| 2026-05-04 11:39 | 53.87172 | 9.87579 | 8797 ft | 270 kts | 70° |
| 2026-05-04 11:40 | 53.90474 | 10.06920 | 8062 ft | 299 kts | 73° |
| 2026-05-04 11:41 | 53.91025 | 10.10266 | 7938 ft | 298 kts | 73° |
| 2026-05-04 11:41 | 53.91582 | 10.13647 | 7811 ft | 297 kts | 73° |
| 2026-05-04 11:41 | 53.92138 | 10.17023 | 7681 ft | 297 kts | 73° |
| 2026-05-04 11:41 | 53.92692 | 10.20389 | 7558 ft | 296 kts | 73° |
| 2026-05-04 11:42 | 53.93243 | 10.23750 | 7435 ft | 295 kts | 73° |
| 2026-05-04 11:42 | 53.93789 | 10.27098 | 7308 ft | 294 kts | 73° |
| 2026-05-04 11:42 | 53.94329 | 10.30441 | 7183 ft | 293 kts | 73° |
| 2026-05-04 11:42 | 53.94866 | 10.33775 | 7059 ft | 293 kts | 73° |
| 2026-05-04 11:43 | 53.95396 | 10.37057 | 6932 ft | 282 kts | 73° |
| 2026-05-04 11:43 | 53.95909 | 10.40229 | 6492 ft | 283 kts | 73° |
| 2026-05-04 11:43 | 53.96403 | 10.43547 | 5883 ft | 292 kts | 81° |
| 2026-05-04 11:43 | 53.96327 | 10.46897 | 5773 ft | 279 kts | 105° |
| 2026-05-04 11:44 | 53.95519 | 10.49773 | 5646 ft | 265 kts | 130° |
| 2026-05-04 11:44 | 53.94178 | 10.51760 | 5530 ft | 251 kts | 154° |
| 2026-05-04 11:44 | 53.92566 | 10.52726 | 5398 ft | 243 kts | 175° |
| 2026-05-04 11:44 | 53.90911 | 10.52667 | 5279 ft | 237 kts | 195° |
| 2026-05-04 11:45 | 53.89398 | 10.51673 | 5152 ft | 231 kts | 215° |
| 2026-05-04 11:45 | 53.88194 | 10.49924 | 5020 ft | 227 kts | 233° |
| 2026-05-04 11:45 | 53.87130 | 10.47874 | 4904 ft | 236 kts | 229° |
| 2026-05-04 11:45 | 53.86021 | 10.45804 | 4781 ft | 238 kts | 232° |
| 2026-05-04 11:46 | 53.84957 | 10.43656 | 4654 ft | 238 kts | 233° |
| 2026-05-04 11:46 | 53.83915 | 10.41504 | 4531 ft | 233 kts | 233° |
| 2026-05-04 11:46 | 53.82905 | 10.39421 | 4405 ft | 224 kts | 233° |
| 2026-05-04 11:46 | 53.81930 | 10.37414 | 4266 ft | 217 kts | 233° |
| 2026-05-04 11:47 | 53.80985 | 10.35469 | 4149 ft | 210 kts | 233° |
| 2026-05-04 11:47 | 53.80080 | 10.33609 | 4058 ft | 197 kts | 233° |
| 2026-05-04 11:47 | 53.79235 | 10.31874 | 3938 ft | 186 kts | 233° |
| 2026-05-04 11:47 | 53.78419 | 10.30197 | 3810 ft | 184 kts | 233° |
| 2026-05-04 11:48 | 53.77607 | 10.28529 | 3680 ft | 183 kts | 233° |
| 2026-05-04 11:48 | 53.76797 | 10.26870 | 3554 ft | 183 kts | 233° |
| 2026-05-04 11:48 | 53.75988 | 10.25213 | 3425 ft | 182 kts | 233° |
| 2026-05-04 11:48 | 53.75182 | 10.23562 | 3300 ft | 182 kts | 233° |
| 2026-05-04 11:49 | 53.74378 | 10.21912 | 3218 ft | 182 kts | 233° |
| 2026-05-04 11:49 | 53.73570 | 10.20261 | 3050 ft | 182 kts | 233° |
| 2026-05-04 11:49 | 53.72796 | 10.18684 | 2857 ft | 168 kts | 233° |
| 2026-05-04 11:49 | 53.72066 | 10.17194 | 2633 ft | 163 kts | 233° |
| 2026-05-04 11:50 | 53.71348 | 10.15730 | 2420 ft | 161 kts | 233° |
| 2026-05-04 11:50 | 53.70636 | 10.14276 | 2207 ft | 160 kts | 234° |
| 2026-05-04 11:50 | 53.69926 | 10.12828 | 1994 ft | 160 kts | 234° |
| 2026-05-04 11:50 | 53.69216 | 10.11382 | 1782 ft | 159 kts | 234° |
| 2026-05-04 11:51 | 53.68507 | 10.09940 | 1573 ft | 159 kts | 234° |
| 2026-05-04 11:51 | 53.67799 | 10.08497 | 1362 ft | 160 kts | 234° |
| 2026-05-04 11:51 | 53.67328 | 10.07540 | 1216 ft | 160 kts | 234° |
| 2026-05-04 11:51 | 53.66619 | 10.06099 | 1007 ft | 159 kts | 234° |
| 2026-05-04 11:52 | 53.65913 | 10.04663 | 796 ft | 159 kts | 234° |
| 2026-05-04 11:52 | 53.65205 | 10.03226 | 583 ft | 159 kts | 233° |
| 2026-05-04 11:52 | 53.64500 | 10.01795 | 373 ft | 159 kts | 233° |
| 2026-05-04 11:52 | 53.63793 | 10.00361 | 160 ft | 158 kts | 232° |
| 2026-05-04 11:53 | 53.63115 | 9.98985 | 45 ft | 133 kts | 231° |
| 2026-05-04 11:53 | 53.62715 | 9.98156 | 41 ft | 63 kts | 232° |
| 2026-05-04 11:53 | 53.62498 | 9.97777 | 41 ft | 27 kts | 190° |
| 2026-05-04 11:53 | 53.62434 | 9.97859 | 41 ft | 6 kts | 112° |
| 2026-05-04 11:55 | 53.62476 | 9.98333 | 44 ft | 8 kts | 79° |
| 2026-05-04 11:55 | 53.62487 | 9.98431 | 47 ft | 11 kts | 79° |
| 2026-05-04 11:56 | 53.62501 | 9.98552 | 47 ft | 10 kts | 79° |
| 2026-05-04 11:56 | 53.62513 | 9.98663 | 47 ft | 11 kts | 79° |
| 2026-05-04 11:56 | 53.62529 | 9.98800 | 47 ft | 11 kts | 79° |
| 2026-05-04 11:56 | 53.62543 | 9.98923 | 47 ft | 10 kts | 79° |
| 2026-05-04 11:57 | 53.62556 | 9.99031 | 47 ft | 9 kts | 79° |
| 2026-05-04 11:57 | 53.62567 | 9.99128 | 47 ft | 8 kts | 80° |
| 2026-05-04 11:57 | 53.62576 | 9.99213 | 47 ft | 8 kts | 80° |
| 2026-05-04 11:57 | 53.62590 | 9.99338 | 47 ft | 14 kts | 79° |
| 2026-05-04 11:58 | 53.62608 | 9.99494 | 47 ft | 13 kts | 79° |
| 2026-05-04 11:58 | 53.62626 | 9.99651 | 47 ft | 14 kts | 79° |
| 2026-05-04 11:58 | 53.62653 | 9.99801 | 46 ft | 13 kts | 57° |
| 2026-05-04 11:58 | 53.62723 | 9.99887 | 46 ft | 12 kts | 30° |
| 2026-05-04 11:59 | 53.62795 | 9.99953 | 47 ft | 11 kts | 28° |
| 2026-05-04 11:59 | 53.62867 | 10.00038 | 48 ft | 15 kts | 45° |
| 2026-05-04 11:59 | 53.62957 | 10.00142 | 46 ft | 17 kts | 33° |
| 2026-05-04 11:59 | 53.63038 | 10.00230 | 47 ft | 7 kts | 33° |
| 2026-05-04 12:00 | 53.63036 | 10.00285 | 48 ft | 5 kts | 137° |
| 2026-05-04 12:00 | 53.63024 | 10.00311 | 48 ft | 0 kts | 125° |
| 2026-05-04 12:02 | 53.63003 | 10.00364 | 48 ft | 0 kts | 123° |